createdAt,value
2023-02-14T00:00:57.923Z,1.812
2023-02-14T00:03:56.851Z,1.75
2023-02-14T00:06:56.753Z,1.75
2023-02-14T00:09:57.602Z,1.75
2023-02-14T00:12:57.564Z,1.75
2023-02-14T00:15:57.832Z,1.812
2023-02-14T00:18:57.620Z,1.75
2023-02-14T00:21:57.521Z,1.75
2023-02-14T00:24:58.029Z,1.75
2023-02-14T00:28:01.517Z,1.75
2023-02-14T00:30:58.249Z,1.75
2023-02-14T00:33:57.433Z,1.75
2023-02-14T00:36:56.900Z,1.75
2023-02-14T00:39:58.077Z,1.75
2023-02-14T00:42:57.438Z,1.75
2023-02-14T00:45:58.085Z,1.75
2023-02-14T00:48:57.477Z,1.75
2023-02-14T00:51:57.137Z,1.75
2023-02-14T00:54:57.424Z,1.75
2023-02-14T00:57:57.019Z,1.75
2023-02-14T01:00:58.543Z,1.75
2023-02-14T01:03:57.072Z,1.75
2023-02-14T01:06:56.810Z,1.75
2023-02-14T01:09:57.140Z,1.75
2023-02-14T01:12:58.871Z,1.75
2023-02-14T01:15:57.353Z,1.75
2023-02-14T01:18:56.691Z,1.75
2023-02-14T01:21:56.772Z,1.75
2023-02-14T01:24:57.472Z,1.687
2023-02-14T01:27:57.037Z,1.687
2023-02-14T01:30:58.348Z,1.75
2023-02-14T01:33:56.693Z,1.687
2023-02-14T01:36:57.280Z,1.687
2023-02-14T01:39:57.394Z,1.687
2023-02-14T01:42:57.503Z,1.687
2023-02-14T01:45:57.860Z,1.687
2023-02-14T01:48:57.413Z,1.687
2023-02-14T01:51:56.626Z,1.687
2023-02-14T01:54:56.994Z,1.687
2023-02-14T01:58:07.636Z,1.687
2023-02-14T02:00:58.694Z,1.687
2023-02-14T02:03:57.166Z,1.687
2023-02-14T02:06:57.812Z,1.687
2023-02-14T02:10:03.280Z,1.687
2023-02-14T02:12:57.482Z,1.687
2023-02-14T02:15:57.382Z,1.687
2023-02-14T02:18:58.006Z,1.687
2023-02-14T02:21:57.640Z,1.687
2023-02-14T02:24:57.407Z,1.687
2023-02-14T02:27:57.204Z,1.687
2023-02-14T02:30:58.941Z,1.687
2023-02-14T02:33:57.463Z,1.687
2023-02-14T02:36:56.764Z,1.687
2023-02-14T02:39:57.733Z,1.625
2023-02-14T02:42:56.966Z,1.687
2023-02-14T02:45:57.477Z,1.625
2023-02-14T02:48:56.850Z,1.625
2023-02-14T02:51:57.176Z,1.625
2023-02-14T02:54:56.715Z,1.625
2023-02-14T02:57:57.725Z,1.625
2023-02-14T03:00:57.553Z,1.625
2023-02-14T03:03:57.244Z,1.625
2023-02-14T03:06:57.317Z,1.625
2023-02-14T03:09:56.888Z,1.625
2023-02-14T03:12:57.323Z,1.625
2023-02-14T03:15:57.557Z,1.625
2023-02-14T03:18:57.257Z,1.625
2023-02-14T03:21:57.209Z,1.625
2023-02-14T03:24:57.062Z,1.625
2023-02-14T03:27:57.110Z,1.625
2023-02-14T03:30:58.471Z,1.625
2023-02-14T03:33:56.968Z,1.625
2023-02-14T03:36:57.545Z,1.625
2023-02-14T03:39:57.821Z,1.625
2023-02-14T03:42:57.496Z,1.562
2023-02-14T03:45:57.706Z,1.625
2023-02-14T03:48:56.854Z,1.625
2023-02-14T03:51:56.989Z,1.562
2023-02-14T03:54:56.807Z,1.562
2023-02-14T03:57:57.518Z,1.562
2023-02-14T04:00:57.681Z,1.562
2023-02-14T04:03:57.060Z,1.562
2023-02-14T04:06:57.385Z,1.562
2023-02-14T04:09:57.143Z,1.562
2023-02-14T04:12:57.608Z,1.562
2023-02-14T04:15:57.441Z,1.562
2023-02-14T04:18:58.076Z,1.562
2023-02-14T04:21:57.266Z,1.562
2023-02-14T04:24:57.306Z,1.562
2023-02-14T04:27:57.808Z,1.562
2023-02-14T04:30:58.572Z,1.562
2023-02-14T04:33:57.258Z,1.562
2023-02-14T04:36:56.943Z,1.562
2023-02-14T04:39:57.834Z,1.562
2023-02-14T04:42:57.457Z,1.562
2023-02-14T04:45:57.683Z,1.562
2023-02-14T04:48:57.052Z,1.562
2023-02-14T04:51:57.563Z,1.562
2023-02-14T04:54:56.981Z,1.562
2023-02-14T04:57:57.541Z,1.562
2023-02-14T05:00:58.127Z,1.562
2023-02-14T05:03:56.665Z,1.562
2023-02-14T05:06:57.704Z,1.562
2023-02-14T05:09:58.515Z,1.562
2023-02-14T05:12:57.724Z,1.562
2023-02-14T05:15:57.070Z,1.562
2023-02-14T05:18:57.104Z,1.5
2023-02-14T05:21:56.830Z,1.5
2023-02-14T05:24:57.404Z,1.5
2023-02-14T05:27:56.889Z,1.562
2023-02-14T05:30:57.817Z,1.5
2023-02-14T05:33:56.989Z,1.5
2023-02-14T05:36:57.095Z,1.5
2023-02-14T05:39:57.596Z,1.5
2023-02-14T05:42:57.089Z,1.5
2023-02-14T05:45:57.184Z,1.5
2023-02-14T05:48:57.441Z,1.5
2023-02-14T05:51:57.410Z,1.5
2023-02-14T05:54:56.896Z,1.5
2023-02-14T05:57:58.131Z,1.5
2023-02-14T06:00:57.965Z,1.5
2023-02-14T06:03:58.631Z,1.5
2023-02-14T06:06:57.621Z,1.5
2023-02-14T06:09:57.712Z,1.5
2023-02-14T06:12:58.361Z,1.5
2023-02-14T06:15:58.160Z,1.5
2023-02-14T06:18:58.089Z,1.5
2023-02-14T06:21:57.685Z,1.5
2023-02-14T06:24:57.151Z,1.5
2023-02-14T06:27:57.910Z,1.5
2023-02-14T06:30:57.714Z,1.437
2023-02-14T06:33:57.450Z,1.5
2023-02-14T06:36:57.744Z,1.437
2023-02-14T06:39:57.907Z,1.5
2023-02-14T06:42:57.252Z,1.437
2023-02-14T06:45:57.806Z,1.437
2023-02-14T06:48:57.481Z,1.437
2023-02-14T06:51:58.101Z,1.437
2023-02-14T06:54:57.444Z,1.437
2023-02-14T06:57:57.561Z,1.437
2023-02-14T07:00:58.736Z,1.437
2023-02-14T07:03:57.929Z,1.437
2023-02-14T07:06:57.783Z,1.437
2023-02-14T07:09:57.674Z,1.437
2023-02-14T07:12:58.101Z,1.437
2023-02-14T07:15:57.564Z,1.437
2023-02-14T07:18:57.338Z,1.437
2023-02-14T07:21:57.621Z,1.437
2023-02-14T07:24:57.107Z,1.437
2023-02-14T07:27:58.299Z,1.437
2023-02-14T07:30:58.691Z,1.437
2023-02-14T07:33:57.672Z,1.437
2023-02-14T07:36:57.288Z,1.437
2023-02-14T07:39:57.448Z,1.437
2023-02-14T07:42:57.518Z,1.437
2023-02-14T07:45:57.400Z,1.437
2023-02-14T07:48:57.622Z,1.437
2023-02-14T07:51:57.306Z,1.437
2023-02-14T07:54:57.456Z,1.375
2023-02-14T07:57:57.495Z,1.437
2023-02-14T08:00:58.604Z,1.375
2023-02-14T08:03:57.106Z,1.375
2023-02-14T08:06:57.232Z,1.375
2023-02-14T08:09:57.911Z,1.375
2023-02-14T08:13:02.948Z,1.375
2023-02-14T08:15:57.804Z,1.375
2023-02-14T08:18:57.228Z,1.375
2023-02-14T08:21:57.822Z,1.375
2023-02-14T08:24:57.455Z,1.375
2023-02-14T08:27:56.898Z,1.375
2023-02-14T08:30:58.277Z,1.375
2023-02-14T08:33:57.620Z,1.375
2023-02-14T08:36:57.358Z,1.375
2023-02-14T08:39:57.302Z,1.375
2023-02-14T08:42:57.280Z,1.375
2023-02-14T08:45:57.808Z,1.375
2023-02-14T08:48:57.144Z,1.375
2023-02-14T08:51:58.530Z,1.375
2023-02-14T08:54:57.090Z,1.375
2023-02-14T08:57:57.338Z,1.375
2023-02-14T09:00:58.773Z,1.375
2023-02-14T09:03:57.718Z,1.375
2023-02-14T09:06:57.320Z,1.375
2023-02-14T09:09:58.090Z,1.375
2023-02-14T09:12:56.614Z,1.375
2023-02-14T09:15:58.156Z,1.375
2023-02-14T09:18:57.356Z,1.375
2023-02-14T09:21:57.320Z,1.312
2023-02-14T09:24:57.074Z,1.312
2023-02-14T09:27:57.917Z,1.375
2023-02-14T09:30:57.946Z,1.375
2023-02-14T09:33:57.145Z,1.375
2023-02-14T09:36:57.819Z,1.312
2023-02-14T09:39:57.964Z,1.312
2023-02-14T09:42:59.075Z,1.312
2023-02-14T09:45:57.770Z,1.312
2023-02-14T09:48:57.729Z,1.312
2023-02-14T09:51:56.895Z,1.312
2023-02-14T09:54:57.774Z,1.312
2023-02-14T09:57:57.630Z,1.312
2023-02-14T10:00:58.091Z,1.312
2023-02-14T10:03:57.293Z,1.312
2023-02-14T10:06:56.932Z,1.312
2023-02-14T10:09:57.460Z,1.312
2023-02-14T10:13:08.362Z,1.312
2023-02-14T10:15:57.293Z,1.312
2023-02-14T10:18:57.367Z,1.312
2023-02-14T10:21:57.212Z,1.312
2023-02-14T10:24:58.034Z,1.312
2023-02-14T10:27:57.226Z,1.312
2023-02-14T10:30:58.404Z,1.312
2023-02-14T10:33:57.889Z,1.312
2023-02-14T10:36:57.359Z,1.312
2023-02-14T10:39:58.876Z,1.312
2023-02-14T10:42:56.902Z,1.312
2023-02-14T10:45:57.514Z,1.312
2023-02-14T10:48:56.988Z,1.312
2023-02-14T10:51:57.594Z,1.312
2023-02-14T10:54:56.920Z,1.312
2023-02-14T10:57:57.831Z,1.312
2023-02-14T11:00:58.590Z,1.312
2023-02-14T11:04:16.331Z,1.312
2023-02-14T11:06:57.218Z,1.312
2023-02-14T11:09:57.951Z,1.312
2023-02-14T11:12:57.449Z,1.312
2023-02-14T11:15:58.387Z,1.312
2023-02-14T11:18:56.930Z,1.312
2023-02-14T11:21:57.429Z,1.312
2023-02-14T11:24:57.000Z,1.312
2023-02-14T11:27:57.294Z,1.312
2023-02-14T11:30:57.311Z,1.312
2023-02-14T11:33:57.163Z,1.312
2023-02-14T11:36:57.539Z,1.312
2023-02-14T11:39:57.911Z,1.312
2023-02-14T11:43:12.801Z,1.312
2023-02-14T11:45:57.557Z,1.312
2023-02-14T11:48:57.301Z,1.312
2023-02-14T11:52:02.764Z,1.312
2023-02-14T11:54:58.437Z,1.312
2023-02-14T11:57:56.872Z,1.312
2023-02-14T12:00:58.015Z,1.312
2023-02-14T12:03:57.833Z,1.312
2023-02-14T12:06:57.447Z,1.312
2023-02-14T12:10:00.156Z,1.312
2023-02-14T12:12:56.808Z,1.312
2023-02-14T12:15:57.204Z,1.312
2023-02-14T12:18:57.227Z,1.312
2023-02-14T12:21:57.511Z,1.312
2023-02-14T12:24:56.860Z,1.312
2023-02-14T12:27:56.851Z,1.312
2023-02-14T12:30:57.774Z,1.312
2023-02-14T12:33:57.520Z,1.312
2023-02-14T12:36:57.334Z,1.312
2023-02-14T12:39:57.672Z,1.312
2023-02-14T12:42:57.373Z,1.312
2023-02-14T12:45:57.350Z,1.312
2023-02-14T12:48:57.286Z,1.312
2023-02-14T12:51:57.547Z,1.312
2023-02-14T12:54:56.773Z,1.312
2023-02-14T12:57:57.072Z,1.312
2023-02-14T13:00:57.022Z,1.312
2023-02-14T13:03:57.292Z,1.312
2023-02-14T13:06:57.033Z,1.312
2023-02-14T13:09:59.213Z,1.312
2023-02-14T13:12:57.953Z,1.312
2023-02-14T13:15:57.369Z,1.375
2023-02-14T13:18:56.979Z,1.375
2023-02-14T13:21:59.716Z,1.312
2023-02-14T13:24:57.729Z,1.375
2023-02-14T13:27:57.427Z,1.375
2023-02-14T13:30:57.839Z,1.375
2023-02-14T13:33:57.501Z,1.375
2023-02-14T13:36:57.584Z,1.375
2023-02-14T13:39:58.406Z,1.375
2023-02-14T13:42:57.270Z,1.375
2023-02-14T13:45:57.995Z,1.375
2023-02-14T13:48:57.386Z,1.437
2023-02-14T13:51:57.513Z,1.437
2023-02-14T13:54:57.329Z,1.437
2023-02-14T13:57:57.303Z,1.437
2023-02-14T14:00:57.790Z,1.437
2023-02-14T14:03:57.794Z,1.437
2023-02-14T14:06:57.161Z,1.437
2023-02-14T14:09:57.071Z,1.437
2023-02-14T14:12:57.560Z,1.437
2023-02-14T14:15:57.802Z,1.5
2023-02-14T14:18:57.362Z,1.5
2023-02-14T14:21:57.402Z,1.5
2023-02-14T14:24:57.139Z,1.5
2023-02-14T14:27:57.401Z,1.5
2023-02-14T14:30:57.861Z,1.5
2023-02-14T14:33:57.201Z,1.5
2023-02-14T14:36:57.312Z,1.562
2023-02-14T14:39:58.044Z,1.562
2023-02-14T14:42:57.852Z,1.562
2023-02-14T14:45:57.641Z,1.562
2023-02-14T14:48:56.699Z,1.562
2023-02-14T14:51:57.395Z,1.625
2023-02-14T14:54:57.220Z,1.625
2023-02-14T14:57:56.746Z,1.625
2023-02-14T15:00:58.334Z,1.625
2023-02-14T15:03:57.010Z,1.625
2023-02-14T15:06:57.519Z,1.625
2023-02-14T15:09:57.318Z,1.625
2023-02-14T15:12:57.298Z,1.625
2023-02-14T15:15:57.430Z,1.687
2023-02-14T15:18:57.473Z,1.687
2023-02-14T15:21:57.371Z,1.687
2023-02-14T15:24:57.257Z,1.687
2023-02-14T15:27:57.782Z,1.687
2023-02-14T15:30:57.878Z,1.687
2023-02-14T15:33:57.499Z,1.687
2023-02-14T15:36:57.352Z,1.687
2023-02-14T15:39:57.365Z,1.75
2023-02-14T15:42:57.673Z,1.75
2023-02-14T15:45:57.734Z,1.75
2023-02-14T15:48:56.830Z,1.75
2023-02-14T15:51:57.323Z,1.75
2023-02-14T15:54:57.163Z,1.75
2023-02-14T15:57:57.533Z,1.75
2023-02-14T16:00:57.747Z,1.75
2023-02-14T16:03:57.479Z,1.75
2023-02-14T16:06:57.546Z,1.75
2023-02-14T16:09:57.927Z,1.812
2023-02-14T16:12:57.675Z,1.812
2023-02-14T16:15:57.563Z,1.812
2023-02-14T16:18:57.523Z,1.812
2023-02-14T16:21:58.010Z,1.812
2023-02-14T16:24:57.493Z,1.812
2023-02-14T16:27:58.181Z,1.812
2023-02-14T16:30:58.482Z,1.812
2023-02-14T16:33:57.757Z,1.812
2023-02-14T16:36:57.399Z,1.875
2023-02-14T16:39:58.045Z,1.875
2023-02-14T16:42:57.223Z,1.875
2023-02-14T16:45:57.922Z,1.875
2023-02-14T16:48:57.523Z,1.875
2023-02-14T16:51:57.852Z,1.875
2023-02-14T16:54:57.837Z,1.875
2023-02-14T16:57:57.581Z,1.875
2023-02-14T17:00:58.893Z,1.875
2023-02-14T17:03:57.194Z,1.875
2023-02-14T17:06:57.472Z,1.875
2023-02-14T17:09:58.356Z,1.875
2023-02-14T17:12:58.351Z,1.875
2023-02-14T17:15:57.538Z,1.875
2023-02-14T17:18:58.423Z,1.875
2023-02-14T17:22:03.283Z,1.875
2023-02-14T17:24:58.339Z,1.875
2023-02-14T17:27:57.340Z,1.875
2023-02-14T17:31:00.393Z,1.875
2023-02-14T17:33:58.257Z,1.937
2023-02-14T17:36:57.990Z,1.937
2023-02-14T17:39:57.971Z,1.937
2023-02-14T17:42:57.736Z,1.937
2023-02-14T17:45:57.733Z,1.875
2023-02-14T17:48:57.959Z,1.875
2023-02-14T17:51:57.899Z,1.937
2023-02-14T17:54:57.676Z,1.937
2023-02-14T17:57:57.314Z,1.937
2023-02-14T18:00:59.358Z,1.937
2023-02-14T18:03:57.681Z,1.937
2023-02-14T18:06:57.212Z,1.937
2023-02-14T18:09:57.337Z,1.937
2023-02-14T18:12:57.830Z,1.937
2023-02-14T18:15:58.093Z,1.937
2023-02-14T18:18:58.260Z,1.937
2023-02-14T18:21:57.485Z,1.937
2023-02-14T18:24:57.602Z,1.937
2023-02-14T18:27:58.242Z,1.937
2023-02-14T18:30:57.566Z,1.937
2023-02-14T18:33:58.332Z,1.937
2023-02-14T18:36:57.717Z,1.937
2023-02-14T18:39:57.736Z,1.937
2023-02-14T18:42:57.611Z,1.937
2023-02-14T18:45:57.480Z,1.937
2023-02-14T18:48:57.640Z,1.937
2023-02-14T18:51:57.986Z,1.937
2023-02-14T18:54:57.194Z,1.937
2023-02-14T18:57:58.287Z,1.937
2023-02-14T19:01:26.281Z,1.937
2023-02-14T19:03:57.225Z,1.937
2023-02-14T19:06:58.025Z,1.875
2023-02-14T19:09:57.253Z,1.875
2023-02-14T19:12:57.152Z,1.937
2023-02-14T19:15:58.448Z,1.937
2023-02-14T19:18:56.989Z,1.875
2023-02-14T19:21:57.461Z,1.875
2023-02-14T19:24:57.682Z,1.937
2023-02-14T19:27:57.388Z,1.937
2023-02-14T19:30:57.455Z,1.875
2023-02-14T19:33:57.532Z,1.875
2023-02-14T19:36:57.658Z,1.875
2023-02-14T19:39:57.273Z,1.875
2023-02-14T19:42:57.526Z,1.875
2023-02-14T19:45:57.283Z,1.875
2023-02-14T19:48:56.828Z,1.875
2023-02-14T19:51:57.447Z,1.875
2023-02-14T19:55:03.105Z,1.875
2023-02-14T19:57:57.732Z,1.875
2023-02-14T20:01:02.638Z,1.875
2023-02-14T20:03:57.383Z,1.875
2023-02-14T20:06:58.200Z,1.875
2023-02-14T20:09:57.472Z,1.875
2023-02-14T20:12:57.298Z,1.875
2023-02-14T20:15:57.643Z,1.875
2023-02-14T20:18:57.807Z,1.875
2023-02-14T20:21:57.290Z,1.875
2023-02-14T20:24:57.406Z,1.875
2023-02-14T20:27:58.085Z,1.875
2023-02-14T20:30:58.015Z,1.875
2023-02-14T20:33:58.179Z,1.875
2023-02-14T20:36:57.872Z,1.875
2023-02-14T20:39:58.040Z,1.875
2023-02-14T20:42:57.900Z,1.812
2023-02-14T20:45:57.381Z,1.812
2023-02-14T20:48:57.227Z,1.812
2023-02-14T20:51:57.877Z,1.875
2023-02-14T20:54:57.526Z,1.875
2023-02-14T20:57:59.963Z,1.875
2023-02-14T21:00:58.600Z,1.875
2023-02-14T21:03:57.267Z,1.812
2023-02-14T21:06:58.088Z,1.812
2023-02-14T21:10:04.175Z,1.812
2023-02-14T21:12:57.236Z,1.812
2023-02-14T21:16:02.612Z,1.812
2023-02-14T21:18:58.143Z,1.812
2023-02-14T21:21:57.908Z,1.812
2023-02-14T21:24:57.671Z,1.812
2023-02-14T21:28:04.615Z,1.812
2023-02-14T21:30:58.102Z,1.812
2023-02-14T21:33:57.647Z,1.812
2023-02-14T21:36:57.255Z,1.812
2023-02-14T21:39:57.504Z,1.812
2023-02-14T21:42:57.256Z,1.812
2023-02-14T21:45:57.032Z,1.812
2023-02-14T21:48:57.405Z,1.812
2023-02-14T21:51:57.025Z,1.812
2023-02-14T21:54:58.058Z,1.812
2023-02-14T21:57:57.766Z,1.812
2023-02-14T22:00:57.717Z,1.812
2023-02-14T22:03:57.549Z,1.812
2023-02-14T22:06:57.312Z,1.75
2023-02-14T22:09:58.421Z,1.75
2023-02-14T22:12:57.083Z,1.75
2023-02-14T22:15:57.955Z,1.75
2023-02-14T22:18:57.768Z,1.75
2023-02-14T22:21:57.244Z,1.75
2023-02-14T22:24:57.993Z,1.75
2023-02-14T22:27:57.624Z,1.75
2023-02-14T22:30:57.580Z,1.75
2023-02-14T22:33:57.480Z,1.75
2023-02-14T22:36:57.306Z,1.75
2023-02-14T22:39:57.430Z,1.75
2023-02-14T22:42:56.985Z,1.75
2023-02-14T22:45:57.263Z,1.75
2023-02-14T22:48:57.934Z,1.75
2023-02-14T22:51:58.055Z,1.75
2023-02-14T22:54:57.374Z,1.75
2023-02-14T22:57:57.878Z,1.75
2023-02-14T23:00:58.458Z,1.75
2023-02-14T23:03:57.258Z,1.75
2023-02-14T23:06:57.838Z,1.75
2023-02-14T23:09:56.711Z,1.687
2023-02-14T23:12:57.243Z,1.687
2023-02-14T23:15:57.467Z,1.687
2023-02-14T23:18:57.662Z,1.687
2023-02-14T23:21:56.784Z,1.687
2023-02-14T23:24:56.505Z,1.687
2023-02-14T23:27:57.812Z,1.687
2023-02-14T23:30:57.436Z,1.687
2023-02-14T23:33:57.391Z,1.687
2023-02-14T23:36:57.509Z,1.687
2023-02-14T23:39:57.515Z,1.687
2023-02-14T23:42:57.625Z,1.687
2023-02-14T23:45:57.354Z,1.687
2023-02-14T23:48:58.008Z,1.687
2023-02-14T23:51:58.384Z,1.687
2023-02-14T23:54:57.779Z,1.687
2023-02-14T23:57:57.732Z,1.687
